createdAt,value
2024-05-09T00:00:38.545Z,9.368086
2024-05-09T00:05:31.370Z,9.271406
2024-05-09T00:10:36.129Z,9.158906
2024-05-09T00:15:31.375Z,9.085859
2024-05-09T00:20:37.729Z,8.996797
2024-05-09T00:25:31.248Z,8.986445
2024-05-09T00:30:35.039Z,8.981172
2024-05-09T00:35:31.401Z,8.894844
2024-05-09T00:40:38.709Z,8.81125
2024-05-09T00:45:31.308Z,8.71711
2024-05-09T00:50:36.402Z,8.638594
2024-05-09T00:55:31.453Z,8.57043
2024-05-09T01:00:38.239Z,8.518281
2024-05-09T01:05:31.957Z,8.484297
2024-05-09T01:10:34.200Z,8.395234
2024-05-09T01:15:31.257Z,8.405781
2024-05-09T01:20:39.891Z,8.343086
2024-05-09T01:25:32.727Z,8.212227
2024-05-09T01:30:35.117Z,8.063203
2024-05-09T01:35:31.445Z,8.05539
2024-05-09T01:40:36.999Z,8.131172
2024-05-09T01:45:31.447Z,8.230586
2024-05-09T01:50:39.322Z,8.170429
2024-05-09T01:55:31.322Z,8.07375
2024-05-09T02:00:38.410Z,8.097187
2024-05-09T02:05:31.375Z,8.016132
2024-05-09T02:10:32.999Z,7.916914
2024-05-09T02:15:31.311Z,7.862031
2024-05-09T02:20:36.014Z,7.8175
2024-05-09T02:25:31.330Z,7.780977
2024-05-09T02:30:39.247Z,7.746992
2024-05-09T02:35:31.462Z,7.75207
2024-05-09T02:40:36.449Z,7.707735
2024-05-09T02:45:31.373Z,7.697187
2024-05-09T02:50:37.703Z,7.655391
2024-05-09T02:55:31.407Z,7.566524
2024-05-09T03:00:38.242Z,7.558711
2024-05-09T03:05:31.495Z,7.474922
2024-05-09T03:10:35.784Z,7.333711
2024-05-09T03:15:32.636Z,7.192695
2024-05-09T03:20:34.817Z,7.132539
2024-05-09T03:25:31.426Z,7.038398
2024-05-09T03:30:39.867Z,6.986055
2024-05-09T03:35:31.420Z,6.944258
2024-05-09T03:40:31.543Z,6.915547
2024-05-09T03:45:31.471Z,6.865742
2024-05-09T03:50:35.501Z,6.847578
2024-05-09T03:55:31.555Z,6.907539
2024-05-09T04:00:37.724Z,7.006953
2024-05-09T04:05:32.526Z,7.16125
2024-05-09T04:10:34.101Z,7.284102
2024-05-09T04:15:31.942Z,7.307735
2024-05-09T04:20:38.099Z,7.318086
2024-05-09T04:25:31.480Z,7.383516
2024-05-09T04:30:37.802Z,7.393867
2024-05-09T04:35:31.629Z,7.574336
2024-05-09T04:40:35.020Z,7.772969
2024-05-09T04:45:31.563Z,8.099922
2024-05-09T04:50:36.910Z,8.235859
2024-05-09T04:55:31.570Z,8.395234
2024-05-09T05:00:36.327Z,8.630781
2024-05-09T05:05:31.557Z,8.730195
2024-05-09T05:10:35.919Z,8.837421
2024-05-09T05:15:31.473Z,9.041328
2024-05-09T05:20:33.780Z,9.51457
2024-05-09T05:25:31.543Z,9.773359
2024-05-09T05:30:34.633Z,9.823164
2024-05-09T05:35:31.670Z,10.02961
2024-05-09T05:40:36.488Z,10.30148
2024-05-09T05:45:31.531Z,10.45852
2024-05-09T05:50:35.587Z,10.72004
2024-05-09T05:55:31.516Z,10.84289
2024-05-09T06:00:37.893Z,11.1384
2024-05-09T06:05:31.638Z,11.36066
2024-05-09T06:10:37.847Z,11.98039
2024-05-09T06:15:31.514Z,13.84758
2024-05-09T06:20:35.961Z,15.01379
2024-05-09T06:25:31.558Z,15.96809
2024-05-09T06:30:38.608Z,16.86516
2024-05-09T06:35:31.908Z,17.8093
2024-05-09T06:40:36.978Z,18.43684
2024-05-09T06:45:31.583Z,19.08527
2024-05-09T06:50:37.289Z,19.34445
2024-05-09T06:55:31.564Z,19.78625
2024-05-09T07:00:38.766Z,20.74855
2024-05-09T07:05:31.737Z,21.30578
2024-05-09T07:10:35.157Z,21.42863
2024-05-09T07:15:31.620Z,21.58293
2024-05-09T07:20:34.724Z,22.37531
2024-05-09T07:25:31.792Z,22.84602
2024-05-09T07:30:34.345Z,23.56789
2024-05-09T07:35:31.861Z,23.33234
2024-05-09T07:40:36.026Z,23.11027
2024-05-09T07:45:47.580Z,23.91301
2024-05-09T07:52:23.725Z,24.61399
2024-05-09T07:55:31.823Z,24.23469
2024-05-09T08:00:32.279Z,24.52766
2024-05-09T08:05:31.894Z,25.28352
2024-05-09T08:10:31.697Z,25.77531
2024-05-09T08:15:31.714Z,25.10578
2024-05-09T08:20:35.165Z,26.24855
2024-05-09T08:25:31.733Z,26.31906
2024-05-09T08:30:36.792Z,26.60695
2024-05-09T08:35:31.719Z,26.00266
2024-05-09T08:40:35.334Z,25.96086
2024-05-09T08:45:31.784Z,26.82395
2024-05-09T08:50:38.037Z,26.94152
2024-05-09T08:55:31.738Z,26.72453
2024-05-09T09:00:36.899Z,26.84484
2024-05-09T09:05:33.298Z,26.94152
2024-05-09T09:10:33.419Z,26.62512
2024-05-09T09:15:31.791Z,26.46047
2024-05-09T09:20:36.427Z,27.57961
2024-05-09T09:25:31.917Z,27.25031
2024-05-09T09:30:36.859Z,27.62668
2024-05-09T09:35:31.833Z,27.8257
2024-05-09T09:40:34.931Z,27.90148
2024-05-09T09:45:33.521Z,27.46984
2024-05-09T09:50:34.892Z,26.54152
2024-05-09T09:55:31.977Z,27.09582
2024-05-09T10:00:33.518Z,27.50383
2024-05-09T10:05:32.320Z,26.85266
2024-05-09T10:10:33.150Z,26.3216
2024-05-09T10:15:31.917Z,27.2843
2024-05-09T10:20:41.769Z,27.34699
2024-05-09T10:25:31.889Z,25.36457
2024-05-09T10:30:36.087Z,23.85031
2024-05-09T10:35:35.002Z,23.79797
2024-05-09T10:40:32.435Z,25.86144
2024-05-09T10:45:31.893Z,27.13781
2024-05-09T10:50:34.349Z,26.70363
2024-05-09T10:55:32.106Z,28.09504
2024-05-09T11:00:37.247Z,28.61281
2024-05-09T11:05:33.739Z,29.00773
2024-05-09T11:10:34.208Z,28.06105
2024-05-09T11:15:40.931Z,28.92141
2024-05-09T11:20:41.530Z,28.24914
2024-05-09T11:25:33.014Z,26.94406
2024-05-09T11:30:35.041Z,26.89719
2024-05-09T11:35:32.944Z,27.51164
2024-05-09T11:40:34.435Z,27.65031
2024-05-09T11:45:31.905Z,26.49699
2024-05-09T11:50:35.567Z,28.08977
2024-05-09T11:55:36.004Z,27.72082
2024-05-09T12:00:36.712Z,28.27531
2024-05-09T12:05:32.212Z,27.62414
2024-05-09T12:10:34.701Z,28.06613
2024-05-09T12:15:31.964Z,28.42727
2024-05-09T12:20:37.173Z,28.28312
2024-05-09T12:25:31.927Z,27.69465
2024-05-09T12:30:37.399Z,27.56926
2024-05-09T12:35:31.987Z,27.21359
2024-05-09T12:40:36.652Z,27.13254
2024-05-09T12:45:32.305Z,27.42023
2024-05-09T12:50:34.061Z,26.08644
2024-05-09T12:55:40.166Z,24.4466
2024-05-09T13:00:34.227Z,23.85559
2024-05-09T13:05:32.273Z,24.39426
2024-05-09T13:10:33.373Z,25.70188
2024-05-09T13:15:32.008Z,25.96613
2024-05-09T13:20:34.533Z,25.72297
2024-05-09T13:25:32.084Z,24.60617
2024-05-09T13:30:39.262Z,24.33937
2024-05-09T13:35:32.053Z,23.74055
2024-05-09T13:40:34.859Z,24.3132
2024-05-09T13:45:32.192Z,24.77863
2024-05-09T13:50:36.241Z,24.75246
2024-05-09T13:55:32.031Z,24.16926
2024-05-09T14:00:42.745Z,24.13
2024-05-09T14:05:32.191Z,24.32629
2024-05-09T14:10:32.688Z,23.97844
2024-05-09T14:15:32.122Z,24.52238
2024-05-09T14:20:32.687Z,24.49641
2024-05-09T14:25:35.207Z,24.85188
2024-05-09T14:30:37.077Z,25.03781
2024-05-09T14:35:32.081Z,24.56691
2024-05-09T14:40:40.246Z,24.02024
2024-05-09T14:45:32.199Z,23.92082
2024-05-09T14:50:36.745Z,23.8634
2024-05-09T14:55:32.188Z,23.23313
2024-05-09T15:00:35.750Z,22.77024
2024-05-09T15:05:32.170Z,21.77902
2024-05-09T15:10:35.639Z,21.84426
2024-05-09T15:15:32.226Z,21.8968
2024-05-09T15:20:35.915Z,21.84699
2024-05-09T15:25:32.088Z,22.51379
2024-05-09T15:30:33.806Z,22.53215
2024-05-09T15:35:32.211Z,22.41457
2024-05-09T15:40:39.162Z,21.50695
2024-05-09T15:45:32.838Z,21.02863
2024-05-09T15:50:38.185Z,20.96301
2024-05-09T15:55:33.359Z,20.57336
2024-05-09T16:00:38.024Z,20.34074
2024-05-09T16:05:32.226Z,20.28332
2024-05-09T16:10:33.905Z,20.1341
2024-05-09T16:15:32.486Z,19.92219
2024-05-09T16:20:38.934Z,19.89875
2024-05-09T16:25:32.242Z,19.78625
2024-05-09T16:30:35.373Z,20.01633
2024-05-09T16:35:32.242Z,19.96926
2024-05-09T16:40:38.024Z,19.89602
2024-05-09T16:45:32.272Z,19.87785
2024-05-09T16:50:34.390Z,19.95617
2024-05-09T16:55:32.266Z,20.71457
2024-05-09T17:00:40.173Z,21.15402
2024-05-09T17:05:32.338Z,21.94914
2024-05-09T17:10:34.374Z,22.17394
2024-05-09T17:15:32.655Z,21.79465
2024-05-09T17:20:35.657Z,21.55676
2024-05-09T17:25:32.359Z,21.72922
2024-05-09T17:30:36.080Z,21.79465
2024-05-09T17:35:32.270Z,21.30832
2024-05-09T17:40:35.858Z,20.23879
2024-05-09T17:45:32.505Z,19.49074
2024-05-09T17:50:35.836Z,18.77687
2024-05-09T17:55:32.490Z,18.35578
2024-05-09T18:00:38.193Z,18.0341
2024-05-09T18:05:32.969Z,17.79348
2024-05-09T18:10:36.846Z,17.78312
2024-05-09T18:15:32.561Z,17.79094
2024-05-09T18:20:40.855Z,17.88234
2024-05-09T18:25:32.246Z,17.91379
2024-05-09T18:30:35.384Z,17.82238
2024-05-09T18:35:32.303Z,17.60793
2024-05-09T18:40:35.890Z,17.38566
2024-05-09T18:45:32.665Z,17.05598
2024-05-09T18:50:36.744Z,16.83644
2024-05-09T18:55:32.333Z,16.49387
2024-05-09T19:00:36.339Z,16.24816
2024-05-09T19:05:32.656Z,15.98117
2024-05-09T19:10:34.946Z,15.75383
2024-05-09T19:15:32.459Z,15.60481
2024-05-09T19:20:35.119Z,15.47395
2024-05-09T19:25:32.338Z,15.39816
2024-05-09T19:30:38.884Z,15.29367
2024-05-09T19:35:32.441Z,15.19172
2024-05-09T19:40:34.148Z,15.15246
2024-05-09T19:45:32.526Z,15.05559
2024-05-09T19:50:40.351Z,14.96945
2024-05-09T19:55:32.431Z,14.83059
2024-05-09T20:00:35.977Z,14.71828
2024-05-09T20:05:32.824Z,14.53508
2024-05-09T20:10:34.693Z,14.3757
2024-05-09T20:15:32.439Z,14.2423
2024-05-09T20:20:38.069Z,14.13508
2024-05-09T20:25:32.407Z,14.02785
2024-05-09T20:30:34.054Z,13.96789
2024-05-09T20:35:33.777Z,13.81613
2024-05-09T20:40:36.122Z,13.66711
2024-05-09T20:45:32.551Z,13.47863
2024-05-09T20:50:38.109Z,13.27473
2024-05-09T20:55:32.518Z,13.12043
2024-05-09T21:00:39.493Z,12.95832
2024-05-09T21:05:32.553Z,12.74133
2024-05-09T21:10:33.966Z,12.55578
2024-05-09T21:15:32.464Z,12.3257
2024-05-09T21:20:34.085Z,12.10852
2024-05-09T21:25:32.546Z,11.90969
2024-05-09T21:30:40.652Z,11.74504
2024-05-09T21:35:32.419Z,11.61691
2024-05-09T21:40:35.186Z,11.55148
2024-05-09T21:45:32.602Z,11.43918
2024-05-09T21:50:39.256Z,11.3632
2024-05-09T21:55:32.459Z,11.30832
2024-05-09T22:00:37.551Z,11.14367
2024-05-09T22:05:32.724Z,11.03391
2024-05-09T22:10:35.439Z,11.00246
2024-05-09T22:15:33.456Z,10.92395
2024-05-09T22:20:37.322Z,10.83781
2024-05-09T22:25:33.010Z,10.80637
2024-05-09T22:30:37.074Z,10.72531
2024-05-09T22:35:32.473Z,10.67043
2024-05-09T22:40:42.256Z,10.62336
2024-05-09T22:45:32.646Z,10.45852
2024-05-09T22:50:33.573Z,10.33039
2024-05-09T22:55:32.536Z,10.23352
2024-05-09T23:00:33.281Z,10.16301
2024-05-09T23:05:33.039Z,10.09758
2024-05-09T23:10:36.595Z,10.03742
2024-05-09T23:15:32.999Z,9.982539
2024-05-09T23:20:37.523Z,9.91457
2024-05-09T23:25:32.656Z,9.83625
2024-05-09T23:30:38.187Z,9.799531
2024-05-09T23:35:32.672Z,9.752461
2024-05-09T23:45:32.757Z,9.687226
2024-05-09T23:50:36.030Z,9.681953
2024-05-09T23:55:32.820Z,9.650508
